createdAt,value
2022-07-29T00:01:53.534Z,17.41
2022-07-29T00:04:21.511Z,17.33
2022-07-29T00:06:48.558Z,17.35
2022-07-29T00:09:15.406Z,17.43
2022-07-29T00:11:42.136Z,17.46
2022-07-29T00:14:09.491Z,17.48
2022-07-29T00:16:36.532Z,17.45
2022-07-29T00:19:03.536Z,17.45
2022-07-29T00:21:30.413Z,17.42
2022-07-29T00:23:56.999Z,17.34
2022-07-29T00:26:23.543Z,17.22
2022-07-29T00:28:50.086Z,17.20
2022-07-29T00:31:16.607Z,17.18
2022-07-29T00:33:43.199Z,17.22
2022-07-29T00:36:09.913Z,17.21
2022-07-29T00:38:36.728Z,17.19
2022-07-29T00:41:03.477Z,17.13
2022-07-29T00:43:29.974Z,17.09
2022-07-29T00:45:56.738Z,17.02
2022-07-29T00:48:23.472Z,16.98
2022-07-29T00:50:51.198Z,16.97
2022-07-29T00:53:18.003Z,16.94
2022-07-29T00:55:44.639Z,16.70
2022-07-29T00:58:14.347Z,16.47
2022-07-29T01:00:43.313Z,16.43
2022-07-29T01:03:12.194Z,16.46
2022-07-29T01:05:50.327Z,16.45
2022-07-29T01:08:18.949Z,16.46
2022-07-29T01:10:47.145Z,16.49
2022-07-29T01:13:15.799Z,16.57
2022-07-29T01:15:53.434Z,16.62
2022-07-29T01:18:29.546Z,16.69
2022-07-29T01:21:30.802Z,16.72
2022-07-29T01:24:12.301Z,16.63
2022-07-29T01:26:50.238Z,16.47
2022-07-29T01:29:26.026Z,16.37
2022-07-29T01:32:28.939Z,16.31
2022-07-29T01:34:59.211Z,16.28
2022-07-29T01:38:04.837Z,16.23
2022-07-29T01:40:46.120Z,16.26
2022-07-29T01:43:17.301Z,16.20
2022-07-29T01:45:51.906Z,16.23
2022-07-29T01:48:32.684Z,16.24
2022-07-29T01:51:20.364Z,16.22
2022-07-29T01:54:08.375Z,16.25
2022-07-29T01:56:37.532Z,16.25
2022-07-29T01:59:07.501Z,16.27
2022-07-29T02:01:36.006Z,16.29
2022-07-29T02:04:08.025Z,16.34
2022-07-29T02:06:37.544Z,16.34
2022-07-29T02:09:05.549Z,16.26
2022-07-29T02:11:37.025Z,16.19
2022-07-29T02:14:05.186Z,16.14
2022-07-29T02:16:34.562Z,16.01
2022-07-29T02:19:03.349Z,15.88
2022-07-29T02:21:32.995Z,15.78
2022-07-29T02:24:03.160Z,15.64
2022-07-29T02:26:33.142Z,15.71
2022-07-29T02:29:01.238Z,15.80
2022-07-29T02:31:33.522Z,15.86
2022-07-29T02:34:02.958Z,15.87
2022-07-29T02:36:32.501Z,15.86
2022-07-29T02:39:01.806Z,15.89
2022-07-29T02:41:45.951Z,15.95
2022-07-29T02:44:15.986Z,15.97
2022-07-29T02:47:00.083Z,16.04
2022-07-29T02:49:48.819Z,16.01
2022-07-29T02:52:30.126Z,15.92
2022-07-29T02:55:03.306Z,15.77
2022-07-29T02:57:54.996Z,15.62
2022-07-29T03:00:24.841Z,15.61
2022-07-29T03:02:54.881Z,15.61
2022-07-29T03:05:22.328Z,15.67
2022-07-29T03:08:10.799Z,15.62
2022-07-29T03:10:39.877Z,15.59
2022-07-29T03:13:08.871Z,15.55
2022-07-29T03:15:36.019Z,15.48
2022-07-29T03:18:03.473Z,15.48
2022-07-29T03:20:30.404Z,15.43
2022-07-29T03:22:56.890Z,15.42
2022-07-29T03:25:23.596Z,15.40
2022-07-29T03:27:50.143Z,15.39
2022-07-29T03:30:21.583Z,15.43
2022-07-29T03:32:52.173Z,15.36
2022-07-29T03:35:20.417Z,15.26
2022-07-29T03:37:47.562Z,15.22
2022-07-29T03:40:21.026Z,15.23
2022-07-29T03:42:49.356Z,15.25
2022-07-29T03:45:19.216Z,15.36
2022-07-29T03:47:57.088Z,15.27
2022-07-29T03:50:27.039Z,15.25
2022-07-29T03:52:53.855Z,15.21
2022-07-29T03:55:20.865Z,15.25
2022-07-29T03:57:48.928Z,15.34
2022-07-29T04:00:16.977Z,15.41
2022-07-29T04:02:49.995Z,15.52
2022-07-29T04:05:17.847Z,15.56
2022-07-29T04:07:46.200Z,15.61
2022-07-29T04:10:13.057Z,15.77
2022-07-29T04:12:39.870Z,15.89
2022-07-29T04:15:07.143Z,15.93
2022-07-29T04:17:33.829Z,15.98
2022-07-29T04:20:00.537Z,16.00
2022-07-29T04:22:27.182Z,15.96
2022-07-29T04:24:54.207Z,15.92
2022-07-29T04:27:21.117Z,15.93
2022-07-29T04:29:56.371Z,15.95
2022-07-29T04:32:23.800Z,15.89
2022-07-29T04:34:50.355Z,16.01
2022-07-29T04:37:16.936Z,16.08
2022-07-29T04:39:43.600Z,16.14
2022-07-29T04:42:10.344Z,16.21
2022-07-29T04:44:37.200Z,16.27
2022-07-29T04:47:09.145Z,16.34
2022-07-29T04:49:35.716Z,16.35
2022-07-29T04:52:02.248Z,16.34
2022-07-29T04:54:28.773Z,16.44
2022-07-29T04:56:55.431Z,16.36
2022-07-29T04:59:21.895Z,16.40
2022-07-29T05:01:48.552Z,16.44
2022-07-29T05:04:15.250Z,16.45
2022-07-29T05:06:41.978Z,16.57
2022-07-29T05:09:08.652Z,16.60
2022-07-29T05:11:35.178Z,16.69
2022-07-29T05:14:01.706Z,16.77
2022-07-29T05:16:28.862Z,16.74
2022-07-29T05:18:55.338Z,16.79
2022-07-29T05:21:22.056Z,16.89
2022-07-29T05:23:48.694Z,16.97
2022-07-29T05:26:15.382Z,17.08
2022-07-29T05:28:41.981Z,17.17
2022-07-29T05:31:08.595Z,17.21
2022-07-29T05:33:37.038Z,17.19
2022-07-29T05:36:07.893Z,17.41
2022-07-29T05:38:36.751Z,17.59
2022-07-29T05:41:04.459Z,17.80
2022-07-29T05:43:31.604Z,18.02
2022-07-29T05:45:58.874Z,18.61
2022-07-29T05:48:25.907Z,18.93
2022-07-29T05:50:52.643Z,19.38
2022-07-29T05:53:20.501Z,19.77
2022-07-29T05:55:49.058Z,20.23
2022-07-29T05:58:15.805Z,20.56
2022-07-29T06:00:42.547Z,20.70
2022-07-29T06:03:09.103Z,21.16
2022-07-29T06:05:35.695Z,21.49
2022-07-29T06:08:02.611Z,21.78
2022-07-29T06:10:29.282Z,22.14
2022-07-29T06:12:55.890Z,22.43
2022-07-29T06:15:22.464Z,22.49
2022-07-29T06:18:00.190Z,22.78
2022-07-29T06:20:30.862Z,22.71
2022-07-29T06:22:58.313Z,22.78
2022-07-29T06:25:24.815Z,22.80
2022-07-29T06:27:51.399Z,22.89
2022-07-29T06:30:18.246Z,23.05
2022-07-29T06:32:44.934Z,23.14
2022-07-29T06:35:38.453Z,23.52
2022-07-29T06:37:59.866Z,23.67
2022-07-29T06:40:45.626Z,24.13
2022-07-29T06:43:12.383Z,24.07
2022-07-29T06:45:42.499Z,24.29
2022-07-29T06:48:10.030Z,24.37
2022-07-29T06:50:36.674Z,23.85
2022-07-29T06:53:03.780Z,24.49
2022-07-29T06:55:30.325Z,24.74
2022-07-29T06:57:56.826Z,25.22
2022-07-29T07:00:23.400Z,25.21
2022-07-29T07:02:50.024Z,25.74
2022-07-29T07:05:16.630Z,25.56
2022-07-29T07:07:43.141Z,24.97
2022-07-29T07:10:09.910Z,25.17
2022-07-29T07:12:36.436Z,24.94
2022-07-29T07:15:04.134Z,25.08
2022-07-29T07:17:30.617Z,25.57
2022-07-29T07:19:57.196Z,25.67
2022-07-29T07:22:23.670Z,25.91
2022-07-29T07:24:50.150Z,25.54
2022-07-29T07:27:16.646Z,25.79
2022-07-29T07:29:44.211Z,26.33
2022-07-29T07:32:11.114Z,26.64
2022-07-29T07:34:39.042Z,26.83
2022-07-29T07:37:06.654Z,27.32
2022-07-29T07:39:33.343Z,27.28
2022-07-29T07:42:00.057Z,27.67
2022-07-29T07:44:26.714Z,27.74
2022-07-29T07:46:53.512Z,27.90
2022-07-29T07:49:21.337Z,27.46
2022-07-29T07:51:50.792Z,27.66
2022-07-29T07:54:20.695Z,27.88
2022-07-29T07:56:50.819Z,27.74
2022-07-29T07:59:19.890Z,26.78
2022-07-29T08:01:47.652Z,26.40
2022-07-29T08:04:27.318Z,26.30
2022-07-29T08:06:57.946Z,27.37
2022-07-29T08:09:29.814Z,27.71
2022-07-29T08:11:58.618Z,28.26
2022-07-29T08:14:25.131Z,28.31
2022-07-29T08:16:52.370Z,29.05
2022-07-29T08:19:19.294Z,29.33
2022-07-29T08:21:46.219Z,29.70
2022-07-29T08:24:31.638Z,29.90
2022-07-29T08:26:58.246Z,30.45
2022-07-29T08:29:24.779Z,30.31
2022-07-29T08:31:51.531Z,29.53
2022-07-29T08:34:18.173Z,29.21
2022-07-29T08:36:44.736Z,28.76
2022-07-29T08:39:16.728Z,28.14
2022-07-29T08:41:56.807Z,28.30
2022-07-29T08:44:30.721Z,29.16
2022-07-29T08:46:58.050Z,30.06
2022-07-29T08:49:24.713Z,29.43
2022-07-29T08:51:52.491Z,29.39
2022-07-29T08:54:19.692Z,29.54
2022-07-29T08:56:50.674Z,29.49
2022-07-29T08:59:21.865Z,29.53
2022-07-29T09:01:53.992Z,29.92
2022-07-29T09:04:21.580Z,30.11
2022-07-29T09:06:52.403Z,30.25
2022-07-29T09:09:19.153Z,30.22
2022-07-29T09:11:45.816Z,30.32
2022-07-29T09:14:14.444Z,31.05
2022-07-29T09:16:53.416Z,31.32
2022-07-29T09:19:22.647Z,30.87
2022-07-29T09:22:03.363Z,31.10
2022-07-29T09:24:36.227Z,31.30
2022-07-29T09:27:03.235Z,31.25
2022-07-29T09:29:33.304Z,30.81
2022-07-29T09:32:09.199Z,30.67
2022-07-29T09:34:35.773Z,30.55
2022-07-29T09:37:03.115Z,30.29
2022-07-29T09:39:45.274Z,30.18
2022-07-29T09:42:13.287Z,29.84
2022-07-29T09:44:46.874Z,29.28
2022-07-29T09:47:13.712Z,28.88
2022-07-29T09:49:54.963Z,28.80
2022-07-29T09:52:22.533Z,28.57
2022-07-29T09:54:49.104Z,28.65
2022-07-29T09:57:31.240Z,28.85
2022-07-29T10:00:16.334Z,29.18
2022-07-29T10:02:47.269Z,29.15
2022-07-29T10:05:25.928Z,29.86
2022-07-29T10:07:57.905Z,30.40
2022-07-29T10:10:29.615Z,30.50
2022-07-29T10:13:01.863Z,29.90
2022-07-29T10:15:38.202Z,29.28
2022-07-29T10:18:05.254Z,28.85
2022-07-29T10:20:32.001Z,28.77
2022-07-29T10:22:58.812Z,28.45
2022-07-29T10:25:26.120Z,28.65
2022-07-29T10:27:53.364Z,28.76
2022-07-29T10:30:21.899Z,28.79
2022-07-29T10:33:12.724Z,29.86
2022-07-29T10:36:03.068Z,29.55
2022-07-29T10:39:07.340Z,29.53
2022-07-29T10:41:56.387Z,29.56
2022-07-29T10:44:26.109Z,29.66
2022-07-29T10:46:54.681Z,29.49
2022-07-29T10:49:31.133Z,29.54
2022-07-29T10:51:58.445Z,29.49
2022-07-29T10:54:34.331Z,29.36
2022-07-29T10:57:25.605Z,29.33
2022-07-29T11:00:16.881Z,29.16
2022-07-29T11:02:45.671Z,29.15
2022-07-29T11:05:15.769Z,29.25
2022-07-29T11:08:20.341Z,29.23
2022-07-29T11:11:12.548Z,28.65
2022-07-29T11:13:49.236Z,28.25
2022-07-29T11:16:16.445Z,28.16
2022-07-29T11:19:14.869Z,28.12
2022-07-29T11:21:53.786Z,28.18
2022-07-29T11:24:33.363Z,28.41
2022-07-29T11:27:14.038Z,28.46
2022-07-29T11:29:58.707Z,28.41
2022-07-29T11:32:37.658Z,28.47
2022-07-29T11:35:37.302Z,28.35
2022-07-29T11:38:23.786Z,28.24
2022-07-29T11:41:24.014Z,28.28
2022-07-29T11:43:55.229Z,28.26
2022-07-29T11:46:44.153Z,28.39
2022-07-29T11:49:11.716Z,28.24
2022-07-29T11:51:56.558Z,28.32
2022-07-29T11:54:30.035Z,28.18
2022-07-29T11:56:58.828Z,28.23
2022-07-29T11:59:33.137Z,28.25
2022-07-29T12:04:55.929Z,28.34
2022-07-29T12:07:34.917Z,28.20
2022-07-29T12:10:03.431Z,28.20
2022-07-29T12:12:30.114Z,28.05
2022-07-29T12:14:56.996Z,28.01
2022-07-29T12:17:26.951Z,28.30
2022-07-29T12:19:59.334Z,28.34
2022-07-29T12:22:42.049Z,28.18
2022-07-29T12:28:05.304Z,28.20
2022-07-29T12:30:39.795Z,28.41
2022-07-29T12:33:15.374Z,28.47
2022-07-29T12:35:47.828Z,28.44
2022-07-29T12:38:22.172Z,28.44
2022-07-29T12:40:49.904Z,28.59
2022-07-29T12:43:20.312Z,28.56
2022-07-29T12:45:50.161Z,28.53
2022-07-29T12:48:18.449Z,28.60
2022-07-29T12:51:02.356Z,28.25
2022-07-29T12:53:29.855Z,28.18
2022-07-29T12:55:58.336Z,28.09
2022-07-29T12:58:30.468Z,28.27
2022-07-29T13:01:06.264Z,28.36
2022-07-29T13:03:57.178Z,28.66
2022-07-29T13:06:45.759Z,28.83
2022-07-29T13:09:19.795Z,29.41
2022-07-29T13:11:51.961Z,30.00
2022-07-29T13:14:44.451Z,30.26
2022-07-29T13:17:24.208Z,30.92
2022-07-29T13:20:08.471Z,31.00
2022-07-29T13:22:35.615Z,30.54
2022-07-29T13:25:03.592Z,30.93
2022-07-29T13:27:37.498Z,31.34
2022-07-29T13:30:06.983Z,31.26
2022-07-29T13:32:37.553Z,31.31
2022-07-29T13:35:09.442Z,31.29
2022-07-29T13:37:39.415Z,31.35
2022-07-29T13:40:10.723Z,31.47
2022-07-29T13:42:37.473Z,31.36
2022-07-29T13:45:05.505Z,31.27
2022-07-29T13:47:33.287Z,31.08
2022-07-29T13:50:05.318Z,31.21
2022-07-29T13:52:33.218Z,30.85
2022-07-29T13:55:00.035Z,30.73
2022-07-29T13:57:26.748Z,30.37
2022-07-29T13:59:54.486Z,30.01
2022-07-29T14:02:25.570Z,30.01
2022-07-29T14:04:53.885Z,29.78
2022-07-29T14:07:21.109Z,29.68
2022-07-29T14:09:48.211Z,30.13
2022-07-29T14:12:14.863Z,30.38
2022-07-29T14:14:42.541Z,30.26
2022-07-29T14:17:10.128Z,30.25
2022-07-29T14:19:37.040Z,30.06
2022-07-29T14:22:05.820Z,29.86
2022-07-29T14:24:34.006Z,29.76
2022-07-29T14:27:04.317Z,29.82
2022-07-29T14:29:35.227Z,29.70
2022-07-29T14:32:06.446Z,29.69
2022-07-29T14:34:33.880Z,29.79
2022-07-29T14:37:00.598Z,29.72
2022-07-29T14:39:27.132Z,29.69
2022-07-29T14:41:59.625Z,29.80
2022-07-29T14:44:32.160Z,29.44
2022-07-29T14:47:08.026Z,29.36
2022-07-29T14:49:35.328Z,29.50
2022-07-29T14:52:02.088Z,29.44
2022-07-29T14:54:28.620Z,29.31
2022-07-29T14:56:58.034Z,29.34
2022-07-29T14:59:25.075Z,28.86
2022-07-29T15:01:52.005Z,28.85
2022-07-29T15:04:18.673Z,28.95
2022-07-29T15:06:45.174Z,29.01
2022-07-29T15:09:11.766Z,29.21
2022-07-29T15:11:38.954Z,29.12
2022-07-29T15:14:06.886Z,29.14
2022-07-29T15:16:36.615Z,28.80
2022-07-29T15:19:04.520Z,28.85
2022-07-29T15:21:31.206Z,28.73
2022-07-29T15:23:57.813Z,28.85
2022-07-29T15:26:24.467Z,28.89
2022-07-29T15:28:50.983Z,28.84
2022-07-29T15:31:18.219Z,28.98
2022-07-29T15:33:44.729Z,28.83
2022-07-29T15:36:25.429Z,28.50
2022-07-29T15:38:59.708Z,28.51
2022-07-29T15:41:26.218Z,28.29
2022-07-29T15:43:52.719Z,28.27
2022-07-29T15:46:38.905Z,28.19
2022-07-29T15:49:07.098Z,28.09
2022-07-29T15:51:34.066Z,28.23
2022-07-29T15:54:03.478Z,28.19
2022-07-29T15:56:31.004Z,28.21
2022-07-29T15:58:58.599Z,28.33
2022-07-29T16:01:25.269Z,28.26
2022-07-29T16:03:51.857Z,27.90
2022-07-29T16:06:18.509Z,27.88
2022-07-29T16:08:45.050Z,27.83
2022-07-29T16:11:11.471Z,27.90
2022-07-29T16:13:37.949Z,27.79
2022-07-29T16:16:04.851Z,27.75
2022-07-29T16:18:31.414Z,27.80
2022-07-29T16:20:58.185Z,27.84
2022-07-29T16:23:24.878Z,27.87
2022-07-29T16:25:59.701Z,27.89
2022-07-29T16:28:27.448Z,27.94
2022-07-29T16:30:54.045Z,27.53
2022-07-29T16:33:20.571Z,27.35
2022-07-29T16:35:47.031Z,27.37
2022-07-29T16:38:13.558Z,27.50
2022-07-29T16:40:40.108Z,27.53
2022-07-29T16:43:06.661Z,27.55
2022-07-29T16:45:45.087Z,27.58
2022-07-29T16:48:13.983Z,27.37
2022-07-29T16:50:41.429Z,27.36
2022-07-29T16:53:10.805Z,27.42
2022-07-29T16:55:37.411Z,27.38
2022-07-29T16:58:04.464Z,27.27
2022-07-29T17:00:31.384Z,27.25
2022-07-29T17:03:00.077Z,27.20
2022-07-29T17:05:29.766Z,27.20
2022-07-29T17:08:16.734Z,27.20
2022-07-29T17:10:43.311Z,27.10
2022-07-29T17:13:09.945Z,27.04
2022-07-29T17:15:36.644Z,26.89
2022-07-29T17:18:12.502Z,26.87
2022-07-29T17:20:40.921Z,26.87
2022-07-29T17:23:07.693Z,26.87
2022-07-29T17:25:34.367Z,26.78
2022-07-29T17:28:01.340Z,26.67
2022-07-29T17:30:28.709Z,26.65
2022-07-29T17:32:55.279Z,26.63
2022-07-29T17:35:40.434Z,26.65
2022-07-29T17:38:06.904Z,26.48
2022-07-29T17:40:33.422Z,26.52
2022-07-29T17:42:59.944Z,26.43
2022-07-29T17:45:26.441Z,26.48
2022-07-29T17:48:12.966Z,26.32
2022-07-29T17:50:39.971Z,26.36
2022-07-29T17:53:15.672Z,26.25
2022-07-29T17:55:45.095Z,26.23
2022-07-29T17:58:12.104Z,26.20
2022-07-29T18:00:39.112Z,26.13
2022-07-29T18:03:05.939Z,25.96
2022-07-29T18:05:32.669Z,25.93
2022-07-29T18:07:59.155Z,25.89
2022-07-29T18:10:25.606Z,25.86
2022-07-29T18:12:52.473Z,25.81
2022-07-29T18:15:19.071Z,25.77
2022-07-29T18:17:53.823Z,25.69
2022-07-29T18:20:24.029Z,25.70
2022-07-29T18:22:51.176Z,25.51
2022-07-29T18:25:17.897Z,25.36
2022-07-29T18:27:44.575Z,25.34
2022-07-29T18:30:11.231Z,25.24
2022-07-29T18:32:38.241Z,25.19
2022-07-29T18:35:05.881Z,25.08
2022-07-29T18:38:01.240Z,25.08
2022-07-29T18:40:21.143Z,24.87
2022-07-29T18:42:47.893Z,24.69
2022-07-29T18:45:19.698Z,24.65
2022-07-29T18:47:47.560Z,24.57
2022-07-29T18:50:14.803Z,24.10
2022-07-29T18:52:41.937Z,23.84
2022-07-29T18:55:09.027Z,23.73
2022-07-29T18:57:56.289Z,23.49
2022-07-29T19:00:22.763Z,23.26
2022-07-29T19:02:50.037Z,23.14
2022-07-29T19:05:16.905Z,23.11
2022-07-29T19:07:43.556Z,22.92
2022-07-29T19:10:10.298Z,22.79
2022-07-29T19:12:37.096Z,22.53
2022-07-29T19:15:04.065Z,22.50
2022-07-29T19:17:30.638Z,22.17
2022-07-29T19:19:57.277Z,21.94
2022-07-29T19:22:24.138Z,21.81
2022-07-29T19:24:51.052Z,21.76
2022-07-29T19:27:17.875Z,21.73
2022-07-29T19:29:44.701Z,21.68
2022-07-29T19:32:11.803Z,21.45
2022-07-29T19:34:38.609Z,21.35
2022-07-29T19:37:05.477Z,21.21
2022-07-29T19:39:35.173Z,21.14
2022-07-29T19:42:03.445Z,21.15
2022-07-29T19:44:30.395Z,21.03
2022-07-29T19:46:57.325Z,21.08
2022-07-29T19:49:24.170Z,20.91
2022-07-29T19:51:50.729Z,21.13
2022-07-29T19:54:20.913Z,20.94
2022-07-29T19:56:47.420Z,20.94
2022-07-29T19:59:14.526Z,20.99
2022-07-29T20:01:41.383Z,21.04
2022-07-29T20:04:08.054Z,21.00
2022-07-29T20:06:34.915Z,21.12
2022-07-29T20:09:01.399Z,21.16
2022-07-29T20:11:29.834Z,21.07
2022-07-29T20:13:56.507Z,21.05
2022-07-29T20:16:23.111Z,20.88
2022-07-29T20:18:51.930Z,20.63
2022-07-29T20:21:18.495Z,20.42
2022-07-29T20:23:46.039Z,19.98
2022-07-29T20:26:12.772Z,19.62
2022-07-29T20:28:40.350Z,19.34
2022-07-29T20:31:07.194Z,19.07
2022-07-29T20:33:33.848Z,19.17
2022-07-29T20:36:00.474Z,19.03
2022-07-29T20:38:28.590Z,18.95
2022-07-29T20:40:58.516Z,19.09
2022-07-29T20:43:26.203Z,19.01
2022-07-29T20:45:52.954Z,18.97
2022-07-29T20:48:19.707Z,19.01
2022-07-29T20:50:47.695Z,19.03
2022-07-29T20:53:15.276Z,19.15
2022-07-29T20:55:42.060Z,19.04
2022-07-29T20:58:08.796Z,18.59
2022-07-29T21:00:35.902Z,18.62
2022-07-29T21:03:02.831Z,18.64
2022-07-29T21:05:31.619Z,18.70
2022-07-29T21:07:59.909Z,18.77
2022-07-29T21:10:26.521Z,18.58
2022-07-29T21:12:52.986Z,18.42
2022-07-29T21:15:21.615Z,18.18
2022-07-29T21:17:48.489Z,18.22
2022-07-29T21:20:17.053Z,18.31
2022-07-29T21:22:44.349Z,18.27
2022-07-29T21:25:12.112Z,18.27
2022-07-29T21:27:57.115Z,18.35
2022-07-29T21:30:23.674Z,18.26
2022-07-29T21:32:50.550Z,18.13
2022-07-29T21:35:52.109Z,18.12
2022-07-29T21:38:03.644Z,18.19
2022-07-29T21:40:30.592Z,18.08
2022-07-29T21:42:57.166Z,18.06
2022-07-29T21:45:24.006Z,17.94
2022-07-29T21:47:50.532Z,17.97
2022-07-29T21:50:17.058Z,17.96
2022-07-29T21:52:43.703Z,18.03
2022-07-29T21:55:10.663Z,18.15
2022-07-29T21:57:38.229Z,18.05
2022-07-29T22:00:07.773Z,17.95
2022-07-29T22:02:34.261Z,17.93
2022-07-29T22:05:00.742Z,17.80
2022-07-29T22:07:55.409Z,17.81
2022-07-29T22:10:13.861Z,17.87
2022-07-29T22:12:40.435Z,17.75
2022-07-29T22:15:07.924Z,17.66
2022-07-29T22:17:34.508Z,17.55
2022-07-29T22:20:01.214Z,17.47
2022-07-29T22:22:27.966Z,17.42
2022-07-29T22:24:55.985Z,17.44
2022-07-29T22:27:22.822Z,17.39
2022-07-29T22:29:49.596Z,17.49
2022-07-29T22:32:16.115Z,17.43
2022-07-29T22:34:42.579Z,17.38
2022-07-29T22:37:09.042Z,17.39
2022-07-29T22:39:35.553Z,17.44
2022-07-29T22:42:02.060Z,17.55
2022-07-29T22:44:28.568Z,17.66
2022-07-29T22:46:55.003Z,17.71
2022-07-29T22:49:21.580Z,17.79
2022-07-29T22:51:48.309Z,17.83
2022-07-29T22:54:15.091Z,17.84
2022-07-29T22:56:41.532Z,17.84
2022-07-29T22:59:08.204Z,17.86
2022-07-29T23:01:37.595Z,17.84
2022-07-29T23:04:05.199Z,17.86
2022-07-29T23:06:31.770Z,17.82
2022-07-29T23:08:58.286Z,17.87
2022-07-29T23:11:24.872Z,17.83
2022-07-29T23:13:51.365Z,17.85
2022-07-29T23:16:26.762Z,17.84
2022-07-29T23:18:54.237Z,17.82
2022-07-29T23:21:23.317Z,17.87
2022-07-29T23:23:49.915Z,17.89
2022-07-29T23:26:16.857Z,17.91
2022-07-29T23:28:44.772Z,17.89
2022-07-29T23:31:11.442Z,17.87
2022-07-29T23:33:37.897Z,17.91
2022-07-29T23:36:04.374Z,17.90
2022-07-29T23:38:30.914Z,17.93
2022-07-29T23:40:58.640Z,17.96
2022-07-29T23:43:25.375Z,17.87
2022-07-29T23:45:51.919Z,17.74
2022-07-29T23:48:20.860Z,17.68
2022-07-29T23:50:47.487Z,17.76
2022-07-29T23:53:14.071Z,17.76
2022-07-29T23:55:40.810Z,17.68
2022-07-29T23:58:07.261Z,17.63
